WABB/BIK METAR and TAF weather

Enter ICAO airport designator
Station Type Date Time Source
WABB METAR 2019/08/23 15:00 UTC NOAA

WABB 231500Z 00000KT 9999 FEW018 26/24 Q1010 NOSIG


Station Type Date Time Source
WABB Decoded METAR 2019/08/23 15:00 UTC NOAA

Station name not available
Aug 23, 2019 - 11:00 AM EDT / 2019.08.23 1500 UTC
Wind: Calm:0
Visibility: greater than 7 mile(s):0
Sky conditions: mostly clear
Temperature: 78 F (26 C)
Dew Point: 75 F (24 C)
Relative Humidity: 88%
Pressure (altimeter): 29.83 in. Hg (1010 hPa)
ob: WABB 231500Z 00000KT 9999 FEW018 26/24 Q1010 NOSIG
cycle: 15

Station Type Date Time Source
WABB TAF 2019/08/23 18:07 UTC NOAA

TAF WABB 231600Z 2318/2500 34004KT 9999 SCT018
TEMPO 2319/2322 RA
BECMG 2322/2400 22010KT

Example: see airport list